sensor_id;sensor_type;location;lat;lon;timestamp;P1;durP1;ratioP1;P2;durP2;ratioP2
22097;SDS011;11215;51.938;8.464;2023-07-31T00:00:35;2.33;;;1.20;;
22097;SDS011;11215;51.938;8.464;2023-07-31T00:03:01;2.70;;;1.13;;
22097;SDS011;11215;51.938;8.464;2023-07-31T00:05:26;2.67;;;1.10;;
22097;SDS011;11215;51.938;8.464;2023-07-31T00:07:52;1.20;;;1.10;;
22097;SDS011;11215;51.938;8.464;2023-07-31T00:10:19;3.20;;;1.50;;
22097;SDS011;11215;51.938;8.464;2023-07-31T00:12:45;1.43;;;1.00;;
22097;SDS011;11215;51.938;8.464;2023-07-31T00:15:12;1.33;;;1.00;;
22097;SDS011;11215;51.938;8.464;2023-07-31T00:17:39;1.63;;;1.30;;
22097;SDS011;11215;51.938;8.464;2023-07-31T00:20:05;2.60;;;1.33;;
22097;SDS011;11215;51.938;8.464;2023-07-31T00:22:31;1.20;;;1.10;;
22097;SDS011;11215;51.938;8.464;2023-07-31T00:24:57;1.40;;;1.07;;
22097;SDS011;11215;51.938;8.464;2023-07-31T00:27:23;0.90;;;0.90;;
22097;SDS011;11215;51.938;8.464;2023-07-31T00:29:49;0.90;;;0.90;;
22097;SDS011;11215;51.938;8.464;2023-07-31T00:32:14;1.27;;;1.17;;
22097;SDS011;11215;51.938;8.464;2023-07-31T00:34:40;1.07;;;1.00;;
22097;SDS011;11215;51.938;8.464;2023-07-31T00:37:06;1.73;;;1.13;;
22097;SDS011;11215;51.938;8.464;2023-07-31T00:39:33;2.43;;;1.10;;
22097;SDS011;11215;51.938;8.464;2023-07-31T00:41:59;2.10;;;1.20;;
22097;SDS011;11215;51.938;8.464;2023-07-31T00:44:25;1.40;;;1.30;;
22097;SDS011;11215;51.938;8.464;2023-07-31T00:46:51;2.27;;;1.17;;
22097;SDS011;11215;51.938;8.464;2023-07-31T00:49:18;1.20;;;1.10;;
22097;SDS011;11215;51.938;8.464;2023-07-31T00:51:44;1.10;;;1.00;;
22097;SDS011;11215;51.938;8.464;2023-07-31T00:54:09;1.37;;;1.10;;
22097;SDS011;11215;51.938;8.464;2023-07-31T00:56:36;2.40;;;1.20;;
22097;SDS011;11215;51.938;8.464;2023-07-31T00:59:02;1.33;;;1.20;;
22097;SDS011;11215;51.938;8.464;2023-07-31T01:01:28;2.40;;;1.10;;
22097;SDS011;11215;51.938;8.464;2023-07-31T01:03:54;1.37;;;1.27;;
22097;SDS011;11215;51.938;8.464;2023-07-31T01:06:43;2.13;;;1.10;;
22097;SDS011;11215;51.938;8.464;2023-07-31T01:09:18;8.23;;;1.40;;
22097;SDS011;11215;51.938;8.464;2023-07-31T01:12:01;2.07;;;1.10;;
22097;SDS011;11215;51.938;8.464;2023-07-31T01:14:28;1.20;;;0.90;;
22097;SDS011;11215;51.938;8.464;2023-07-31T01:16:54;1.03;;;0.93;;
22097;SDS011;11215;51.938;8.464;2023-07-31T01:19:22;1.07;;;0.90;;
22097;SDS011;11215;51.938;8.464;2023-07-31T01:24:21;1.20;;;1.10;;
22097;SDS011;11215;51.938;8.464;2023-07-31T01:26:56;3.00;;;1.13;;
22097;SDS011;11215;51.938;8.464;2023-07-31T01:32:42;1.63;;;1.40;;
22097;SDS011;11215;51.938;8.464;2023-07-31T01:35:08;2.43;;;1.50;;
22097;SDS011;11215;51.938;8.464;2023-07-31T01:37:36;1.60;;;1.30;;
22097;SDS011;11215;51.938;8.464;2023-07-31T01:40:03;1.70;;;1.20;;
22097;SDS011;11215;51.938;8.464;2023-07-31T01:42:29;1.30;;;1.20;;
22097;SDS011;11215;51.938;8.464;2023-07-31T01:44:55;1.63;;;1.30;;
22097;SDS011;11215;51.938;8.464;2023-07-31T01:47:20;1.63;;;1.50;;
22097;SDS011;11215;51.938;8.464;2023-07-31T01:49:46;1.80;;;1.50;;
22097;SDS011;11215;51.938;8.464;2023-07-31T01:52:11;1.63;;;1.53;;
22097;SDS011;11215;51.938;8.464;2023-07-31T01:54:37;2.77;;;1.53;;
22097;SDS011;11215;51.938;8.464;2023-07-31T01:57:03;3.30;;;1.70;;
22097;SDS011;11215;51.938;8.464;2023-07-31T01:59:29;1.70;;;1.30;;
22097;SDS011;11215;51.938;8.464;2023-07-31T02:01:54;1.67;;;1.57;;
22097;SDS011;11215;51.938;8.464;2023-07-31T02:04:20;1.93;;;1.33;;
22097;SDS011;11215;51.938;8.464;2023-07-31T02:06:46;1.30;;;1.10;;
22097;SDS011;11215;51.938;8.464;2023-07-31T02:09:11;3.27;;;1.60;;
22097;SDS011;11215;51.938;8.464;2023-07-31T02:11:37;1.20;;;1.10;;
22097;SDS011;11215;51.938;8.464;2023-07-31T02:14:03;1.33;;;1.20;;
22097;SDS011;11215;51.938;8.464;2023-07-31T02:16:28;1.40;;;1.10;;
22097;SDS011;11215;51.938;8.464;2023-07-31T02:18:54;1.57;;;1.23;;
22097;SDS011;11215;51.938;8.464;2023-07-31T02:21:20;2.47;;;1.17;;
22097;SDS011;11215;51.938;8.464;2023-07-31T02:23:46;1.17;;;0.90;;
22097;SDS011;11215;51.938;8.464;2023-07-31T02:26:11;1.00;;;0.90;;
22097;SDS011;11215;51.938;8.464;2023-07-31T02:28:37;1.53;;;1.00;;
22097;SDS011;11215;51.938;8.464;2023-07-31T02:31:02;2.27;;;0.93;;
22097;SDS011;11215;51.938;8.464;2023-07-31T02:33:28;2.00;;;1.20;;
22097;SDS011;11215;51.938;8.464;2023-07-31T02:35:54;1.20;;;1.10;;
22097;SDS011;11215;51.938;8.464;2023-07-31T02:38:20;1.83;;;1.47;;
22097;SDS011;11215;51.938;8.464;2023-07-31T02:40:45;1.17;;;1.00;;
22097;SDS011;11215;51.938;8.464;2023-07-31T02:43:11;2.40;;;1.30;;
22097;SDS011;11215;51.938;8.464;2023-07-31T02:45:37;1.00;;;0.90;;
22097;SDS011;11215;51.938;8.464;2023-07-31T02:48:02;1.90;;;1.20;;
22097;SDS011;11215;51.938;8.464;2023-07-31T02:50:28;1.77;;;1.37;;
22097;SDS011;11215;51.938;8.464;2023-07-31T02:52:54;1.50;;;1.40;;
22097;SDS011;11215;51.938;8.464;2023-07-31T02:55:20;1.60;;;1.40;;
22097;SDS011;11215;51.938;8.464;2023-07-31T02:57:45;1.90;;;1.70;;
22097;SDS011;11215;51.938;8.464;2023-07-31T03:00:12;1.37;;;1.20;;
22097;SDS011;11215;51.938;8.464;2023-07-31T03:02:38;10.33;;;2.13;;
22097;SDS011;11215;51.938;8.464;2023-07-31T03:05:04;2.83;;;1.63;;
22097;SDS011;11215;51.938;8.464;2023-07-31T03:07:29;2.47;;;1.93;;
22097;SDS011;11215;51.938;8.464;2023-07-31T03:09:55;2.60;;;2.30;;
22097;SDS011;11215;51.938;8.464;2023-07-31T03:12:21;3.33;;;3.00;;
22097;SDS011;11215;51.938;8.464;2023-07-31T03:14:47;4.30;;;3.67;;
22097;SDS011;11215;51.938;8.464;2023-07-31T03:17:13;6.17;;;4.13;;
22097;SDS011;11215;51.938;8.464;2023-07-31T03:19:38;6.00;;;4.13;;
22097;SDS011;11215;51.938;8.464;2023-07-31T03:22:04;4.80;;;4.30;;
22097;SDS011;11215;51.938;8.464;2023-07-31T03:24:30;6.93;;;5.50;;
22097;SDS011;11215;51.938;8.464;2023-07-31T03:26:56;8.93;;;6.40;;
22097;SDS011;11215;51.938;8.464;2023-07-31T03:29:23;7.73;;;5.70;;
22097;SDS011;11215;51.938;8.464;2023-07-31T03:31:49;7.83;;;6.27;;
22097;SDS011;11215;51.938;8.464;2023-07-31T03:34:15;8.77;;;6.60;;
22097;SDS011;11215;51.938;8.464;2023-07-31T03:36:40;9.53;;;6.77;;
22097;SDS011;11215;51.938;8.464;2023-07-31T03:39:06;7.87;;;6.70;;
22097;SDS011;11215;51.938;8.464;2023-07-31T03:41:33;9.67;;;6.30;;
22097;SDS011;11215;51.938;8.464;2023-07-31T03:43:58;8.00;;;6.30;;
22097;SDS011;11215;51.938;8.464;2023-07-31T03:46:24;9.47;;;6.87;;
22097;SDS011;11215;51.938;8.464;2023-07-31T03:48:50;11.80;;;6.70;;
22097;SDS011;11215;51.938;8.464;2023-07-31T03:51:16;8.77;;;6.43;;
22097;SDS011;11215;51.938;8.464;2023-07-31T03:53:43;11.17;;;6.17;;
22097;SDS011;11215;51.938;8.464;2023-07-31T03:56:10;9.23;;;6.30;;
22097;SDS011;11215;51.938;8.464;2023-07-31T03:58:35;6.77;;;5.90;;
22097;SDS011;11215;51.938;8.464;2023-07-31T04:01:02;9.90;;;6.73;;
22097;SDS011;11215;51.938;8.464;2023-07-31T04:03:28;11.67;;;6.90;;
22097;SDS011;11215;51.938;8.464;2023-07-31T04:05:54;8.47;;;6.33;;
22097;SDS011;11215;51.938;8.464;2023-07-31T04:08:21;10.07;;;6.53;;
22097;SDS011;11215;51.938;8.464;2023-07-31T04:10:47;7.77;;;6.33;;
22097;SDS011;11215;51.938;8.464;2023-07-31T04:13:13;7.30;;;6.43;;
22097;SDS011;11215;51.938;8.464;2023-07-31T04:15:39;8.27;;;6.37;;
22097;SDS011;11215;51.938;8.464;2023-07-31T04:18:05;10.60;;;6.13;;
22097;SDS011;11215;51.938;8.464;2023-07-31T19:47:35;4.00;;;2.63;;
22097;SDS011;11215;51.938;8.464;2023-07-31T19:50:03;4.10;;;3.10;;
22097;SDS011;11215;51.938;8.464;2023-07-31T19:52:29;3.50;;;2.67;;
22097;SDS011;11215;51.938;8.464;2023-07-31T19:54:55;4.87;;;2.73;;
22097;SDS011;11215;51.938;8.464;2023-07-31T19:57:22;2.53;;;2.33;;
22097;SDS011;11215;51.938;8.464;2023-07-31T19:59:48;2.97;;;2.50;;
22097;SDS011;11215;51.938;8.464;2023-07-31T20:02:14;2.80;;;2.50;;
22097;SDS011;11215;51.938;8.464;2023-07-31T20:04:40;3.07;;;2.30;;
22097;SDS011;11215;51.938;8.464;2023-07-31T20:07:06;2.90;;;2.57;;
22097;SDS011;11215;51.938;8.464;2023-07-31T20:09:33;3.00;;;2.30;;
22097;SDS011;11215;51.938;8.464;2023-07-31T20:12:00;3.40;;;2.50;;
22097;SDS011;11215;51.938;8.464;2023-07-31T20:14:26;2.63;;;2.27;;
22097;SDS011;11215;51.938;8.464;2023-07-31T20:16:55;3.63;;;2.73;;
22097;SDS011;11215;51.938;8.464;2023-07-31T20:19:21;3.20;;;2.57;;
22097;SDS011;11215;51.938;8.464;2023-07-31T20:21:47;2.50;;;2.13;;
22097;SDS011;11215;51.938;8.464;2023-07-31T20:24:13;3.00;;;2.17;;
22097;SDS011;11215;51.938;8.464;2023-07-31T20:26:38;2.40;;;1.93;;
22097;SDS011;11215;51.938;8.464;2023-07-31T20:29:04;3.87;;;2.17;;
22097;SDS011;11215;51.938;8.464;2023-07-31T20:31:30;2.50;;;1.80;;
22097;SDS011;11215;51.938;8.464;2023-07-31T20:33:57;3.00;;;1.60;;
22097;SDS011;11215;51.938;8.464;2023-07-31T20:36:24;2.20;;;1.90;;
22097;SDS011;11215;51.938;8.464;2023-07-31T20:38:51;2.00;;;1.77;;
22097;SDS011;11215;51.938;8.464;2023-07-31T20:41:16;2.17;;;1.60;;
22097;SDS011;11215;51.938;8.464;2023-07-31T20:43:42;2.00;;;1.50;;
22097;SDS011;11215;51.938;8.464;2023-07-31T20:46:08;1.97;;;1.50;;
22097;SDS011;11215;51.938;8.464;2023-07-31T20:48:34;2.30;;;1.67;;
22097;SDS011;11215;51.938;8.464;2023-07-31T20:51:01;1.70;;;1.60;;
22097;SDS011;11215;51.938;8.464;2023-07-31T20:53:28;2.80;;;1.60;;
22097;SDS011;11215;51.938;8.464;2023-07-31T20:55:55;4.27;;;1.60;;
